sensor_id;sensor_type;location;lat;lon;timestamp;P1;durP1;ratioP1;P2;durP2;ratioP2
14381;SDS011;7275;50.328;8.720;2023-05-10T00:00:27;0.40;;;0.40;;
14381;SDS011;7275;50.328;8.720;2023-05-10T00:02:55;0.40;;;0.40;;
14381;SDS011;7275;50.328;8.720;2023-05-10T00:05:22;0.60;;;0.60;;
14381;SDS011;7275;50.328;8.720;2023-05-10T00:07:50;0.70;;;0.70;;
14381;SDS011;7275;50.328;8.720;2023-05-10T00:10:17;1.73;;;0.60;;
14381;SDS011;7275;50.328;8.720;2023-05-10T00:12:45;0.50;;;0.50;;
14381;SDS011;7275;50.328;8.720;2023-05-10T00:15:14;1.00;;;0.50;;
14381;SDS011;7275;50.328;8.720;2023-05-10T00:17:41;0.40;;;0.40;;
14381;SDS011;7275;50.328;8.720;2023-05-10T00:20:09;0.40;;;0.40;;
14381;SDS011;7275;50.328;8.720;2023-05-10T00:22:38;1.00;;;0.40;;
14381;SDS011;7275;50.328;8.720;2023-05-10T00:25:06;0.30;;;0.30;;
14381;SDS011;7275;50.328;8.720;2023-05-10T00:27:35;0.20;;;0.20;;
14381;SDS011;7275;50.328;8.720;2023-05-10T00:30:02;0.20;;;0.20;;
14381;SDS011;7275;50.328;8.720;2023-05-10T00:32:32;1.10;;;0.20;;
14381;SDS011;7275;50.328;8.720;2023-05-10T00:34:59;0.10;;;0.10;;
14381;SDS011;7275;50.328;8.720;2023-05-10T00:37:27;0.50;;;0.30;;
14381;SDS011;7275;50.328;8.720;2023-05-10T00:39:54;0.10;;;0.10;;
14381;SDS011;7275;50.328;8.720;2023-05-10T00:42:22;0.10;;;0.10;;
14381;SDS011;7275;50.328;8.720;2023-05-10T00:44:49;1.23;;;0.20;;
14381;SDS011;7275;50.328;8.720;2023-05-10T00:47:17;0.20;;;0.20;;
14381;SDS011;7275;50.328;8.720;2023-05-10T00:49:46;0.20;;;0.20;;
14381;SDS011;7275;50.328;8.720;2023-05-10T00:52:14;0.17;;;0.10;;
14381;SDS011;7275;50.328;8.720;2023-05-10T00:54:41;0.13;;;0.13;;
14381;SDS011;7275;50.328;8.720;2023-05-10T00:57:09;0.40;;;0.10;;
14381;SDS011;7275;50.328;8.720;2023-05-10T00:59:37;0.87;;;0.10;;
14381;SDS011;7275;50.328;8.720;2023-05-10T01:02:04;0.20;;;0.20;;
14381;SDS011;7275;50.328;8.720;2023-05-10T01:04:32;0.10;;;0.10;;
14381;SDS011;7275;50.328;8.720;2023-05-10T01:07:02;0.60;;;0.20;;
14381;SDS011;7275;50.328;8.720;2023-05-10T01:09:29;0.30;;;0.27;;
14381;SDS011;7275;50.328;8.720;2023-05-10T01:11:57;0.10;;;0.10;;
14381;SDS011;7275;50.328;8.720;2023-05-10T01:14:25;0.20;;;0.20;;
14381;SDS011;7275;50.328;8.720;2023-05-10T01:16:53;0.53;;;0.30;;
14381;SDS011;7275;50.328;8.720;2023-05-10T01:19:22;0.20;;;0.20;;
14381;SDS011;7275;50.328;8.720;2023-05-10T01:21:54;0.10;;;0.10;;
14381;SDS011;7275;50.328;8.720;2023-05-10T01:24:38;0.10;;;0.10;;
14381;SDS011;7275;50.328;8.720;2023-05-10T01:30:35;0.10;;;0.10;;
14381;SDS011;7275;50.328;8.720;2023-05-10T01:33:22;0.37;;;0.20;;
14381;SDS011;7275;50.328;8.720;2023-05-10T01:35:55;0.53;;;0.10;;
14381;SDS011;7275;50.328;8.720;2023-05-10T01:38:29;0.10;;;0.10;;
14381;SDS011;7275;50.328;8.720;2023-05-10T01:41:07;0.10;;;0.10;;
14381;SDS011;7275;50.328;8.720;2023-05-10T01:43:45;0.27;;;0.20;;
14381;SDS011;7275;50.328;8.720;2023-05-10T01:46:24;0.10;;;0.10;;
14381;SDS011;7275;50.328;8.720;2023-05-10T01:48:57;0.50;;;0.20;;
14381;SDS011;7275;50.328;8.720;2023-05-10T01:51:29;0.20;;;0.20;;
14381;SDS011;7275;50.328;8.720;2023-05-10T01:54:01;0.50;;;0.20;;
14381;SDS011;7275;50.328;8.720;2023-05-10T01:56:31;0.20;;;0.10;;
14381;SDS011;7275;50.328;8.720;2023-05-10T01:59:02;0.73;;;0.20;;
14381;SDS011;7275;50.328;8.720;2023-05-10T02:01:35;1.53;;;0.30;;
14381;SDS011;7275;50.328;8.720;2023-05-10T02:04:06;0.57;;;0.20;;
14381;SDS011;7275;50.328;8.720;2023-05-10T02:06:36;0.30;;;0.20;;
14381;SDS011;7275;50.328;8.720;2023-05-10T02:09:06;0.20;;;0.20;;
14381;SDS011;7275;50.328;8.720;2023-05-10T02:11:36;0.30;;;0.30;;
14381;SDS011;7275;50.328;8.720;2023-05-10T02:14:05;1.03;;;0.30;;
14381;SDS011;7275;50.328;8.720;2023-05-10T02:16:36;0.63;;;0.30;;
14381;SDS011;7275;50.328;8.720;2023-05-10T02:19:07;0.27;;;0.27;;
14381;SDS011;7275;50.328;8.720;2023-05-10T02:21:37;1.10;;;0.20;;
14381;SDS011;7275;50.328;8.720;2023-05-10T02:24:06;0.20;;;0.20;;
14381;SDS011;7275;50.328;8.720;2023-05-10T02:26:35;0.20;;;0.10;;
14381;SDS011;7275;50.328;8.720;2023-05-10T02:29:05;0.10;;;0.10;;
14381;SDS011;7275;50.328;8.720;2023-05-10T02:31:33;0.37;;;0.27;;
14381;SDS011;7275;50.328;8.720;2023-05-10T02:34:06;0.40;;;0.30;;
14381;SDS011;7275;50.328;8.720;2023-05-10T02:36:35;0.23;;;0.20;;
14381;SDS011;7275;50.328;8.720;2023-05-10T02:39:04;0.70;;;0.20;;
14381;SDS011;7275;50.328;8.720;2023-05-10T02:41:36;0.20;;;0.20;;
14381;SDS011;7275;50.328;8.720;2023-05-10T02:44:05;0.60;;;0.40;;
14381;SDS011;7275;50.328;8.720;2023-05-10T02:46:35;0.50;;;0.20;;
14381;SDS011;7275;50.328;8.720;2023-05-10T02:49:03;0.00;;;0.00;;
14381;SDS011;7275;50.328;8.720;2023-05-10T02:51:34;0.20;;;0.20;;
14381;SDS011;7275;50.328;8.720;2023-05-10T02:54:06;0.93;;;0.30;;
14381;SDS011;7275;50.328;8.720;2023-05-10T02:56:40;1.07;;;0.20;;
14381;SDS011;7275;50.328;8.720;2023-05-10T02:59:14;0.40;;;0.30;;
14381;SDS011;7275;50.328;8.720;2023-05-10T03:01:41;0.20;;;0.20;;
14381;SDS011;7275;50.328;8.720;2023-05-10T03:04:09;0.40;;;0.40;;
14381;SDS011;7275;50.328;8.720;2023-05-10T03:06:38;0.50;;;0.20;;
14381;SDS011;7275;50.328;8.720;2023-05-10T03:09:06;1.03;;;0.40;;
14381;SDS011;7275;50.328;8.720;2023-05-10T03:11:39;0.70;;;0.30;;
14381;SDS011;7275;50.328;8.720;2023-05-10T03:14:16;0.20;;;0.20;;
14381;SDS011;7275;50.328;8.720;2023-05-10T03:16:55;0.30;;;0.30;;
14381;SDS011;7275;50.328;8.720;2023-05-10T03:19:27;0.20;;;0.20;;
14381;SDS011;7275;50.328;8.720;2023-05-10T03:22:03;0.30;;;0.30;;
14381;SDS011;7275;50.328;8.720;2023-05-10T03:24:35;0.40;;;0.40;;
14381;SDS011;7275;50.328;8.720;2023-05-10T03:27:06;0.40;;;0.40;;
14381;SDS011;7275;50.328;8.720;2023-05-10T03:29:35;0.57;;;0.40;;
14381;SDS011;7275;50.328;8.720;2023-05-10T03:32:05;0.90;;;0.30;;
14381;SDS011;7275;50.328;8.720;2023-05-10T03:34:32;0.87;;;0.30;;
14381;SDS011;7275;50.328;8.720;2023-05-10T03:37:01;1.77;;;0.33;;
14381;SDS011;7275;50.328;8.720;2023-05-10T03:39:28;0.30;;;0.30;;
14381;SDS011;7275;50.328;8.720;2023-05-10T03:41:56;0.30;;;0.30;;
14381;SDS011;7275;50.328;8.720;2023-05-10T03:44:23;1.00;;;0.40;;
14381;SDS011;7275;50.328;8.720;2023-05-10T03:46:51;0.83;;;0.50;;
14381;SDS011;7275;50.328;8.720;2023-05-10T03:49:19;0.30;;;0.30;;
14381;SDS011;7275;50.328;8.720;2023-05-10T03:51:46;0.40;;;0.40;;
14381;SDS011;7275;50.328;8.720;2023-05-10T03:54:15;0.23;;;0.23;;
14381;SDS011;7275;50.328;8.720;2023-05-10T03:56:42;0.20;;;0.20;;
14381;SDS011;7275;50.328;8.720;2023-05-10T03:59:10;0.30;;;0.30;;
14381;SDS011;7275;50.328;8.720;2023-05-10T04:01:37;0.50;;;0.40;;
14381;SDS011;7275;50.328;8.720;2023-05-10T04:04:05;1.10;;;0.40;;
14381;SDS011;7275;50.328;8.720;2023-05-10T04:06:33;0.60;;;0.60;;
14381;SDS011;7275;50.328;8.720;2023-05-10T04:09:01;0.90;;;0.70;;
14381;SDS011;7275;50.328;8.720;2023-05-10T04:11:31;1.13;;;0.60;;
14381;SDS011;7275;50.328;8.720;2023-05-10T04:13:59;0.67;;;0.67;;
14381;SDS011;7275;50.328;8.720;2023-05-10T04:16:26;0.60;;;0.60;;
14381;SDS011;7275;50.328;8.720;2023-05-10T04:18:54;0.80;;;0.80;;
14381;SDS011;7275;50.328;8.720;2023-05-10T04:21:21;0.63;;;0.63;;
14381;SDS011;7275;50.328;8.720;2023-05-10T04:23:49;0.63;;;0.63;;
14381;SDS011;7275;50.328;8.720;2023-05-10T04:26:17;1.90;;;0.60;;
14381;SDS011;7275;50.328;8.720;2023-05-10T04:28:45;1.03;;;0.70;;
14381;SDS011;7275;50.328;8.720;2023-05-10T04:31:13;0.70;;;0.70;;
14381;SDS011;7275;50.328;8.720;2023-05-10T04:33:40;0.60;;;0.60;;
14381;SDS011;7275;50.328;8.720;2023-05-10T04:36:08;0.83;;;0.70;;
14381;SDS011;7275;50.328;8.720;2023-05-10T04:38:36;0.60;;;0.60;;
14381;SDS011;7275;50.328;8.720;2023-05-10T04:41:04;1.07;;;0.80;;
14381;SDS011;7275;50.328;8.720;2023-05-10T04:43:32;1.47;;;0.80;;
14381;SDS011;7275;50.328;8.720;2023-05-10T04:46:01;1.67;;;0.67;;
14381;SDS011;7275;50.328;8.720;2023-05-10T04:48:29;1.80;;;0.73;;
14381;SDS011;7275;50.328;8.720;2023-05-10T04:50:57;0.70;;;0.70;;
14381;SDS011;7275;50.328;8.720;2023-05-10T04:53:25;0.80;;;0.80;;
14381;SDS011;7275;50.328;8.720;2023-05-10T04:55:52;0.83;;;0.80;;
14381;SDS011;7275;50.328;8.720;2023-05-10T04:58:20;0.83;;;0.60;;
14381;SDS011;7275;50.328;8.720;2023-05-10T05:00:48;0.40;;;0.40;;
14381;SDS011;7275;50.328;8.720;2023-05-10T05:03:17;0.50;;;0.50;;
14381;SDS011;7275;50.328;8.720;2023-05-10T05:05:45;0.70;;;0.50;;
14381;SDS011;7275;50.328;8.720;2023-05-10T05:08:12;1.80;;;0.60;;
14381;SDS011;7275;50.328;8.720;2023-05-10T05:10:40;2.87;;;0.53;;
14381;SDS011;7275;50.328;8.720;2023-05-10T05:13:07;0.80;;;0.70;;
14381;SDS011;7275;50.328;8.720;2023-05-10T05:15:35;0.50;;;0.50;;
14381;SDS011;7275;50.328;8.720;2023-05-10T05:18:03;1.43;;;0.60;;
14381;SDS011;7275;50.328;8.720;2023-05-10T05:20:33;1.27;;;0.50;;
14381;SDS011;7275;50.328;8.720;2023-05-10T05:23:00;0.60;;;0.50;;
14381;SDS011;7275;50.328;8.720;2023-05-10T05:25:28;1.00;;;0.53;;
14381;SDS011;7275;50.328;8.720;2023-05-10T05:27:56;0.60;;;0.60;;
14381;SDS011;7275;50.328;8.720;2023-05-10T05:30:23;0.60;;;0.60;;
14381;SDS011;7275;50.328;8.720;2023-05-10T05:32:51;0.87;;;0.60;;
14381;SDS011;7275;50.328;8.720;2023-05-10T05:35:18;2.10;;;0.60;;
14381;SDS011;7275;50.328;8.720;2023-05-10T05:37:47;1.73;;;0.60;;
14381;SDS011;7275;50.328;8.720;2023-05-10T05:40:15;1.50;;;0.60;;
14381;SDS011;7275;50.328;8.720;2023-05-10T05:42:42;1.27;;;0.50;;
14381;SDS011;7275;50.328;8.720;2023-05-10T05:45:10;0.70;;;0.50;;
14381;SDS011;7275;50.328;8.720;2023-05-10T05:47:40;0.67;;;0.60;;
14381;SDS011;7275;50.328;8.720;2023-05-10T05:50:08;1.57;;;0.60;;
14381;SDS011;7275;50.328;8.720;2023-05-10T05:52:37;0.73;;;0.50;;
14381;SDS011;7275;50.328;8.720;2023-05-10T05:55:06;0.93;;;0.60;;
14381;SDS011;7275;50.328;8.720;2023-05-10T05:57:34;0.63;;;0.60;;
14381;SDS011;7275;50.328;8.720;2023-05-10T06:00:02;0.50;;;0.50;;
14381;SDS011;7275;50.328;8.720;2023-05-10T06:02:30;0.60;;;0.60;;
14381;SDS011;7275;50.328;8.720;2023-05-10T06:04:57;1.07;;;0.60;;
14381;SDS011;7275;50.328;8.720;2023-05-10T06:07:25;0.63;;;0.60;;
14381;SDS011;7275;50.328;8.720;2023-05-10T06:09:53;1.23;;;0.50;;
14381;SDS011;7275;50.328;8.720;2023-05-10T06:12:22;0.40;;;0.40;;
14381;SDS011;7275;50.328;8.720;2023-05-10T06:14:49;0.40;;;0.40;;
14381;SDS011;7275;50.328;8.720;2023-05-10T06:17:17;0.80;;;0.50;;
14381;SDS011;7275;50.328;8.720;2023-05-10T06:19:45;0.60;;;0.50;;
14381;SDS011;7275;50.328;8.720;2023-05-10T06:22:13;1.03;;;0.50;;
14381;SDS011;7275;50.328;8.720;2023-05-10T06:24:40;2.20;;;0.60;;
14381;SDS011;7275;50.328;8.720;2023-05-10T06:27:08;0.77;;;0.70;;
14381;SDS011;7275;50.328;8.720;2023-05-10T06:29:37;0.70;;;0.70;;
14381;SDS011;7275;50.328;8.720;2023-05-10T06:32:05;1.47;;;0.83;;
14381;SDS011;7275;50.328;8.720;2023-05-10T06:34:32;1.07;;;0.70;;
14381;SDS011;7275;50.328;8.720;2023-05-10T06:37:00;1.93;;;0.90;;
14381;SDS011;7275;50.328;8.720;2023-05-10T06:39:29;0.63;;;0.50;;
14381;SDS011;7275;50.328;8.720;2023-05-10T06:41:57;0.60;;;0.47;;
14381;SDS011;7275;50.328;8.720;2023-05-10T06:44:24;0.40;;;0.40;;
14381;SDS011;7275;50.328;8.720;2023-05-10T06:46:54;0.53;;;0.40;;
14381;SDS011;7275;50.328;8.720;2023-05-10T06:49:21;0.57;;;0.40;;
14381;SDS011;7275;50.328;8.720;2023-05-10T06:51:49;0.40;;;0.40;;
14381;SDS011;7275;50.328;8.720;2023-05-10T06:54:16;0.30;;;0.27;;
14381;SDS011;7275;50.328;8.720;2023-05-10T06:56:44;0.20;;;0.20;;
14381;SDS011;7275;50.328;8.720;2023-05-10T06:59:12;0.97;;;0.50;;
14381;SDS011;7275;50.328;8.720;2023-05-10T07:01:41;0.30;;;0.30;;
14381;SDS011;7275;50.328;8.720;2023-05-10T07:04:10;0.50;;;0.23;;
14381;SDS011;7275;50.328;8.720;2023-05-10T07:06:38;0.30;;;0.30;;
14381;SDS011;7275;50.328;8.720;2023-05-10T07:09:05;0.50;;;0.30;;
14381;SDS011;7275;50.328;8.720;2023-05-10T07:11:33;0.50;;;0.50;;
14381;SDS011;7275;50.328;8.720;2023-05-10T07:14:01;0.53;;;0.30;;
14381;SDS011;7275;50.328;8.720;2023-05-10T07:16:29;0.40;;;0.40;;
14381;SDS011;7275;50.328;8.720;2023-05-10T07:18:56;0.50;;;0.50;;
14381;SDS011;7275;50.328;8.720;2023-05-10T07:21:25;1.90;;;0.67;;
14381;SDS011;7275;50.328;8.720;2023-05-10T07:23:54;0.60;;;0.60;;
14381;SDS011;7275;50.328;8.720;2023-05-10T07:26:22;1.50;;;0.70;;
14381;SDS011;7275;50.328;8.720;2023-05-10T07:28:50;0.50;;;0.50;;
14381;SDS011;7275;50.328;8.720;2023-05-10T07:31:17;0.73;;;0.47;;
14381;SDS011;7275;50.328;8.720;2023-05-10T07:33:45;0.70;;;0.70;;
14381;SDS011;7275;50.328;8.720;2023-05-10T07:36:12;0.60;;;0.60;;
14381;SDS011;7275;50.328;8.720;2023-05-10T07:38:42;2.07;;;0.70;;
14381;SDS011;7275;50.328;8.720;2023-05-10T07:41:09;0.80;;;0.80;;
14381;SDS011;7275;50.328;8.720;2023-05-10T07:43:39;1.63;;;0.80;;
14381;SDS011;7275;50.328;8.720;2023-05-10T07:46:06;1.47;;;1.10;;
14381;SDS011;7275;50.328;8.720;2023-05-10T07:48:36;0.97;;;0.97;;
14381;SDS011;7275;50.328;8.720;2023-05-10T07:51:03;1.97;;;1.10;;
14381;SDS011;7275;50.328;8.720;2023-05-10T07:53:32;0.77;;;0.77;;
14381;SDS011;7275;50.328;8.720;2023-05-10T07:56:19;1.20;;;1.10;;
14381;SDS011;7275;50.328;8.720;2023-05-10T07:58:48;1.20;;;1.07;;
14381;SDS011;7275;50.328;8.720;2023-05-10T08:01:16;0.90;;;0.90;;
14381;SDS011;7275;50.328;8.720;2023-05-10T08:03:43;1.93;;;1.00;;
14381;SDS011;7275;50.328;8.720;2023-05-10T08:06:11;1.50;;;1.00;;
14381;SDS011;7275;50.328;8.720;2023-05-10T08:08:39;0.93;;;0.87;;
14381;SDS011;7275;50.328;8.720;2023-05-10T08:11:08;1.20;;;1.03;;
14381;SDS011;7275;50.328;8.720;2023-05-10T08:13:36;1.23;;;1.13;;
14381;SDS011;7275;50.328;8.720;2023-05-10T08:16:04;1.10;;;1.00;;
14381;SDS011;7275;50.328;8.720;2023-05-10T08:18:32;1.97;;;1.20;;
14381;SDS011;7275;50.328;8.720;2023-05-10T08:20:59;1.20;;;1.10;;
14381;SDS011;7275;50.328;8.720;2023-05-10T08:23:27;1.33;;;1.07;;
14381;SDS011;7275;50.328;8.720;2023-05-10T08:25:54;1.37;;;1.20;;
14381;SDS011;7275;50.328;8.720;2023-05-10T08:28:23;1.50;;;1.07;;
14381;SDS011;7275;50.328;8.720;2023-05-10T08:30:51;1.10;;;1.00;;
14381;SDS011;7275;50.328;8.720;2023-05-10T08:33:18;1.20;;;1.10;;
14381;SDS011;7275;50.328;8.720;2023-05-10T08:35:46;1.17;;;1.07;;
14381;SDS011;7275;50.328;8.720;2023-05-10T08:38:14;1.40;;;1.10;;
14381;SDS011;7275;50.328;8.720;2023-05-10T08:40:42;3.37;;;1.20;;
14381;SDS011;7275;50.328;8.720;2023-05-10T08:43:12;1.33;;;1.20;;
14381;SDS011;7275;50.328;8.720;2023-05-10T08:45:43;1.23;;;1.13;;
14381;SDS011;7275;50.328;8.720;2023-05-10T08:48:13;2.40;;;1.50;;
14381;SDS011;7275;50.328;8.720;2023-05-10T08:50:42;1.60;;;1.10;;
14381;SDS011;7275;50.328;8.720;2023-05-10T08:53:10;1.27;;;1.17;;
14381;SDS011;7275;50.328;8.720;2023-05-10T08:55:39;1.37;;;1.27;;
14381;SDS011;7275;50.328;8.720;2023-05-10T08:58:09;1.13;;;1.03;;
14381;SDS011;7275;50.328;8.720;2023-05-10T09:00:36;1.00;;;1.00;;
14381;SDS011;7275;50.328;8.720;2023-05-10T09:03:05;1.57;;;1.40;;
14381;SDS011;7275;50.328;8.720;2023-05-10T09:05:33;1.60;;;1.50;;
14381;SDS011;7275;50.328;8.720;2023-05-10T09:08:00;1.50;;;1.40;;
14381;SDS011;7275;50.328;8.720;2023-05-10T09:10:28;2.03;;;1.43;;
14381;SDS011;7275;50.328;8.720;2023-05-10T09:12:57;1.70;;;1.50;;
14381;SDS011;7275;50.328;8.720;2023-05-10T09:15:25;3.27;;;1.50;;
14381;SDS011;7275;50.328;8.720;2023-05-10T09:17:54;1.50;;;1.20;;
14381;SDS011;7275;50.328;8.720;2023-05-10T09:20:23;2.77;;;1.40;;
14381;SDS011;7275;50.328;8.720;2023-05-10T09:22:51;1.97;;;1.17;;
14381;SDS011;7275;50.328;8.720;2023-05-10T09:25:18;0.90;;;0.90;;
14381;SDS011;7275;50.328;8.720;2023-05-10T09:27:47;0.97;;;0.90;;
14381;SDS011;7275;50.328;8.720;2023-05-10T09:30:15;0.70;;;0.70;;
14381;SDS011;7275;50.328;8.720;2023-05-10T09:32:44;1.17;;;0.90;;
14381;SDS011;7275;50.328;8.720;2023-05-10T09:35:13;1.00;;;0.80;;
14381;SDS011;7275;50.328;8.720;2023-05-10T09:37:46;3.53;;;1.10;;
14381;SDS011;7275;50.328;8.720;2023-05-10T09:40:15;1.13;;;0.80;;
14381;SDS011;7275;50.328;8.720;2023-05-10T09:42:50;0.80;;;0.80;;
14381;SDS011;7275;50.328;8.720;2023-05-10T09:45:18;0.90;;;0.90;;
14381;SDS011;7275;50.328;8.720;2023-05-10T09:47:46;1.50;;;1.00;;
14381;SDS011;7275;50.328;8.720;2023-05-10T09:50:14;0.90;;;0.90;;
14381;SDS011;7275;50.328;8.720;2023-05-10T09:52:47;1.70;;;0.90;;
14381;SDS011;7275;50.328;8.720;2023-05-10T09:55:16;1.30;;;1.00;;
14381;SDS011;7275;50.328;8.720;2023-05-10T09:57:46;0.97;;;0.93;;
14381;SDS011;7275;50.328;8.720;2023-05-10T10:00:18;2.27;;;0.90;;
14381;SDS011;7275;50.328;8.720;2023-05-10T10:02:47;1.00;;;0.90;;
14381;SDS011;7275;50.328;8.720;2023-05-10T10:05:15;1.27;;;1.03;;
14381;SDS011;7275;50.328;8.720;2023-05-10T10:07:43;1.13;;;1.03;;
14381;SDS011;7275;50.328;8.720;2023-05-10T10:10:12;1.10;;;1.00;;
14381;SDS011;7275;50.328;8.720;2023-05-10T10:12:41;1.30;;;1.00;;
14381;SDS011;7275;50.328;8.720;2023-05-10T10:15:08;1.23;;;1.10;;
14381;SDS011;7275;50.328;8.720;2023-05-10T10:17:36;1.00;;;0.90;;
14381;SDS011;7275;50.328;8.720;2023-05-10T10:20:06;1.10;;;1.00;;
14381;SDS011;7275;50.328;8.720;2023-05-10T10:22:37;1.08;;;0.98;;
14381;SDS011;7275;50.328;8.720;2023-05-10T10:25:05;2.05;;;1.10;;
14381;SDS011;7275;50.328;8.720;2023-05-10T10:27:38;1.15;;;0.95;;
14381;SDS011;7275;50.328;8.720;2023-05-10T10:30:16;0.80;;;0.80;;
14381;SDS011;7275;50.328;8.720;2023-05-10T10:32:59;1.48;;;0.90;;
14381;SDS011;7275;50.328;8.720;2023-05-10T10:35:52;1.35;;;0.90;;
14381;SDS011;7275;50.328;8.720;2023-05-10T10:38:21;0.80;;;0.80;;
14381;SDS011;7275;50.328;8.720;2023-05-10T10:40:49;1.00;;;0.90;;
14381;SDS011;7275;50.328;8.720;2023-05-10T10:43:31;1.02;;;0.85;;
14381;SDS011;7275;50.328;8.720;2023-05-10T10:46:14;0.82;;;0.82;;
14381;SDS011;7275;50.328;8.720;2023-05-10T10:48:47;1.42;;;1.15;;
14381;SDS011;7275;50.328;8.720;2023-05-10T10:51:15;1.52;;;0.90;;
14381;SDS011;7275;50.328;8.720;2023-05-10T10:53:43;1.30;;;1.00;;
14381;SDS011;7275;50.328;8.720;2023-05-10T10:56:11;1.63;;;0.90;;
14381;SDS011;7275;50.328;8.720;2023-05-10T10:58:48;0.95;;;0.80;;
14381;SDS011;7275;50.328;8.720;2023-05-10T11:01:18;1.15;;;1.00;;
14381;SDS011;7275;50.328;8.720;2023-05-10T11:06:44;1.00;;;0.90;;
14381;SDS011;7275;50.328;8.720;2023-05-10T11:09:12;1.30;;;1.00;;
14381;SDS011;7275;50.328;8.720;2023-05-10T11:11:48;1.83;;;1.10;;
14381;SDS011;7275;50.328;8.720;2023-05-10T11:14:20;1.73;;;1.15;;
14381;SDS011;7275;50.328;8.720;2023-05-10T11:16:49;1.15;;;0.90;;
14381;SDS011;7275;50.328;8.720;2023-05-10T11:19:17;1.10;;;0.80;;
14381;SDS011;7275;50.328;8.720;2023-05-10T11:21:46;2.72;;;0.90;;
14381;SDS011;7275;50.328;8.720;2023-05-10T11:24:15;2.45;;;1.00;;
14381;SDS011;7275;50.328;8.720;2023-05-10T11:26:44;1.17;;;0.75;;
14381;SDS011;7275;50.328;8.720;2023-05-10T11:29:12;0.60;;;0.60;;
14381;SDS011;7275;50.328;8.720;2023-05-10T11:31:45;1.40;;;0.60;;
14381;SDS011;7275;50.328;8.720;2023-05-10T11:34:22;0.63;;;0.63;;
14381;SDS011;7275;50.328;8.720;2023-05-10T11:36:51;1.37;;;0.50;;
14381;SDS011;7275;50.328;8.720;2023-05-10T11:39:20;2.00;;;0.50;;
14381;SDS011;7275;50.328;8.720;2023-05-10T11:41:48;0.87;;;0.50;;
14381;SDS011;7275;50.328;8.720;2023-05-10T11:44:16;0.40;;;0.40;;
14381;SDS011;7275;50.328;8.720;2023-05-10T11:46:45;0.40;;;0.40;;
14381;SDS011;7275;50.328;8.720;2023-05-10T11:49:13;0.43;;;0.43;;
14381;SDS011;7275;50.328;8.720;2023-05-10T11:51:40;0.40;;;0.40;;
14381;SDS011;7275;50.328;8.720;2023-05-10T11:54:10;0.40;;;0.40;;
14381;SDS011;7275;50.328;8.720;2023-05-10T11:56:38;0.40;;;0.40;;
14381;SDS011;7275;50.328;8.720;2023-05-10T11:59:07;0.40;;;0.40;;
14381;SDS011;7275;50.328;8.720;2023-05-10T12:01:35;0.43;;;0.43;;
14381;SDS011;7275;50.328;8.720;2023-05-10T12:04:05;0.40;;;0.40;;
14381;SDS011;7275;50.328;8.720;2023-05-10T12:06:35;0.73;;;0.50;;
14381;SDS011;7275;50.328;8.720;2023-05-10T12:09:06;1.53;;;0.50;;
14381;SDS011;7275;50.328;8.720;2023-05-10T12:11:36;0.60;;;0.40;;
14381;SDS011;7275;50.328;8.720;2023-05-10T12:14:08;0.67;;;0.40;;
14381;SDS011;7275;50.328;8.720;2023-05-10T12:16:36;1.33;;;0.57;;
14381;SDS011;7275;50.328;8.720;2023-05-10T12:19:05;0.70;;;0.70;;
14381;SDS011;7275;50.328;8.720;2023-05-10T12:21:33;1.70;;;0.60;;
14381;SDS011;7275;50.328;8.720;2023-05-10T12:24:02;1.40;;;0.40;;
14381;SDS011;7275;50.328;8.720;2023-05-10T12:26:31;0.80;;;0.70;;
14381;SDS011;7275;50.328;8.720;2023-05-10T12:29:11;0.60;;;0.43;;
14381;SDS011;7275;50.328;8.720;2023-05-10T12:31:49;0.83;;;0.50;;
14381;SDS011;7275;50.328;8.720;2023-05-10T12:34:25;0.73;;;0.60;;
14381;SDS011;7275;50.328;8.720;2023-05-10T12:36:54;1.00;;;0.67;;
14381;SDS011;7275;50.328;8.720;2023-05-10T12:39:22;0.40;;;0.40;;
14381;SDS011;7275;50.328;8.720;2023-05-10T12:41:50;0.87;;;0.53;;
14381;SDS011;7275;50.328;8.720;2023-05-10T12:44:18;0.50;;;0.40;;
14381;SDS011;7275;50.328;8.720;2023-05-10T12:46:45;1.40;;;0.40;;
14381;SDS011;7275;50.328;8.720;2023-05-10T12:49:13;0.50;;;0.50;;
14381;SDS011;7275;50.328;8.720;2023-05-10T12:51:42;0.50;;;0.40;;
14381;SDS011;7275;50.328;8.720;2023-05-10T12:54:10;0.50;;;0.50;;
14381;SDS011;7275;50.328;8.720;2023-05-10T12:56:37;0.87;;;0.47;;
14381;SDS011;7275;50.328;8.720;2023-05-10T12:59:06;0.50;;;0.40;;
14381;SDS011;7275;50.328;8.720;2023-05-10T13:01:34;1.53;;;0.50;;
14381;SDS011;7275;50.328;8.720;2023-05-10T13:04:02;0.50;;;0.50;;
14381;SDS011;7275;50.328;8.720;2023-05-10T13:06:29;0.80;;;0.43;;
14381;SDS011;7275;50.328;8.720;2023-05-10T13:08:59;1.37;;;0.50;;
14381;SDS011;7275;50.328;8.720;2023-05-10T13:11:26;0.40;;;0.40;;
14381;SDS011;7275;50.328;8.720;2023-05-10T13:13:54;0.40;;;0.40;;
14381;SDS011;7275;50.328;8.720;2023-05-10T13:16:21;0.37;;;0.37;;
14381;SDS011;7275;50.328;8.720;2023-05-10T13:18:49;0.40;;;0.40;;
14381;SDS011;7275;50.328;8.720;2023-05-10T13:21:16;0.90;;;0.40;;
14381;SDS011;7275;50.328;8.720;2023-05-10T13:23:44;0.73;;;0.50;;
14381;SDS011;7275;50.328;8.720;2023-05-10T13:26:13;1.13;;;0.40;;
14381;SDS011;7275;50.328;8.720;2023-05-10T13:28:41;0.40;;;0.40;;
14381;SDS011;7275;50.328;8.720;2023-05-10T13:31:09;1.27;;;0.43;;
14381;SDS011;7275;50.328;8.720;2023-05-10T13:33:37;0.93;;;0.30;;
14381;SDS011;7275;50.328;8.720;2023-05-10T13:36:04;0.53;;;0.30;;
14381;SDS011;7275;50.328;8.720;2023-05-10T13:38:33;1.43;;;0.40;;
14381;SDS011;7275;50.328;8.720;2023-05-10T13:41:00;0.50;;;0.50;;
14381;SDS011;7275;50.328;8.720;2023-05-10T13:43:29;0.90;;;0.30;;
14381;SDS011;7275;50.328;8.720;2023-05-10T13:45:57;0.27;;;0.27;;
14381;SDS011;7275;50.328;8.720;2023-05-10T13:48:25;0.47;;;0.40;;
14381;SDS011;7275;50.328;8.720;2023-05-10T13:50:52;0.93;;;0.63;;
14381;SDS011;7275;50.328;8.720;2023-05-10T13:53:20;0.30;;;0.30;;
14381;SDS011;7275;50.328;8.720;2023-05-10T13:55:48;0.83;;;0.47;;
14381;SDS011;7275;50.328;8.720;2023-05-10T13:58:16;0.50;;;0.47;;
14381;SDS011;7275;50.328;8.720;2023-05-10T14:00:45;0.77;;;0.40;;
14381;SDS011;7275;50.328;8.720;2023-05-10T14:03:13;0.40;;;0.40;;
14381;SDS011;7275;50.328;8.720;2023-05-10T14:05:40;0.50;;;0.50;;
14381;SDS011;7275;50.328;8.720;2023-05-10T14:08:08;0.60;;;0.60;;
14381;SDS011;7275;50.328;8.720;2023-05-10T14:10:36;0.87;;;0.77;;
14381;SDS011;7275;50.328;8.720;2023-05-10T14:13:04;1.17;;;0.80;;
14381;SDS011;7275;50.328;8.720;2023-05-10T14:15:32;0.80;;;0.80;;
14381;SDS011;7275;50.328;8.720;2023-05-10T14:18:01;0.87;;;0.80;;
14381;SDS011;7275;50.328;8.720;2023-05-10T14:20:28;0.90;;;0.90;;
14381;SDS011;7275;50.328;8.720;2023-05-10T14:22:56;1.20;;;0.97;;
14381;SDS011;7275;50.328;8.720;2023-05-10T14:25:23;1.70;;;1.10;;
14381;SDS011;7275;50.328;8.720;2023-05-10T14:27:51;1.30;;;0.90;;
14381;SDS011;7275;50.328;8.720;2023-05-10T14:30:20;1.63;;;1.10;;
14381;SDS011;7275;50.328;8.720;2023-05-10T14:32:48;1.20;;;0.80;;
14381;SDS011;7275;50.328;8.720;2023-05-10T14:35:17;0.70;;;0.70;;
14381;SDS011;7275;50.328;8.720;2023-05-10T14:37:45;0.83;;;0.80;;
14381;SDS011;7275;50.328;8.720;2023-05-10T14:40:12;1.00;;;0.80;;
14381;SDS011;7275;50.328;8.720;2023-05-10T14:42:41;1.23;;;0.67;;
14381;SDS011;7275;50.328;8.720;2023-05-10T14:45:09;0.83;;;0.60;;
14381;SDS011;7275;50.328;8.720;2023-05-10T14:47:38;1.83;;;0.57;;
14381;SDS011;7275;50.328;8.720;2023-05-10T14:50:06;0.50;;;0.50;;
14381;SDS011;7275;50.328;8.720;2023-05-10T14:52:35;0.57;;;0.57;;
14381;SDS011;7275;50.328;8.720;2023-05-10T14:55:03;1.03;;;0.60;;
14381;SDS011;7275;50.328;8.720;2023-05-10T14:57:31;1.50;;;0.60;;
14381;SDS011;7275;50.328;8.720;2023-05-10T14:59:59;0.90;;;0.70;;
14381;SDS011;7275;50.328;8.720;2023-05-10T15:02:27;0.73;;;0.57;;
14381;SDS011;7275;50.328;8.720;2023-05-10T15:04:55;1.20;;;0.70;;
14381;SDS011;7275;50.328;8.720;2023-05-10T15:07:24;0.73;;;0.60;;
14381;SDS011;7275;50.328;8.720;2023-05-10T15:09:52;1.23;;;0.60;;
14381;SDS011;7275;50.328;8.720;2023-05-10T15:12:20;0.80;;;0.70;;
14381;SDS011;7275;50.328;8.720;2023-05-10T15:14:47;0.60;;;0.50;;
14381;SDS011;7275;50.328;8.720;2023-05-10T15:17:15;2.35;;;0.60;;